Terminal Aerodrome Forecast
Issued by NWS North Platte, NE

Home | Current Version | Previous Version | Text Only | Print | Product List | Glossary On
Versions: 1 2 3 4 5 6 7 8 9 10 11 12 13 14 15
000
FTUS43 KLBF 251100
TAFLBF
TAF
KLBF 251120Z 2512/2612 VRB02KT P6SM SKC
     FM251400 33012G20KT P6SM SKC
     FM252100 03006KT P6SM SKC
     FM260000 VRB04KT P6SM BKN150=

USA.gov is the U.S. government's official web portal to all federal, state and local government web resources and services.